sensor_id;sensor_type;location;lat;lon;timestamp;P1;durP1;ratioP1;P2;durP2;ratioP2
13085;SDS011;6609;49.882;8.664;2023-04-06T00:00:07;13.13;;;3.97;;
13085;SDS011;6609;49.882;8.664;2023-04-06T00:02:35;9.10;;;4.28;;
13085;SDS011;6609;49.882;8.664;2023-04-06T00:05:02;9.60;;;3.70;;
13085;SDS011;6609;49.882;8.664;2023-04-06T00:07:29;14.52;;;3.90;;
13085;SDS011;6609;49.882;8.664;2023-04-06T00:09:58;9.18;;;3.90;;
13085;SDS011;6609;49.882;8.664;2023-04-06T00:12:25;15.82;;;4.72;;
13085;SDS011;6609;49.882;8.664;2023-04-06T00:14:53;16.50;;;4.43;;
13085;SDS011;6609;49.882;8.664;2023-04-06T00:17:21;11.50;;;3.90;;
13085;SDS011;6609;49.882;8.664;2023-04-06T00:19:48;9.43;;;3.92;;
13085;SDS011;6609;49.882;8.664;2023-04-06T00:22:14;14.80;;;4.13;;
13085;SDS011;6609;49.882;8.664;2023-04-06T00:24:41;11.10;;;4.03;;
13085;SDS011;6609;49.882;8.664;2023-04-06T00:27:08;12.80;;;3.95;;
13085;SDS011;6609;49.882;8.664;2023-04-06T00:29:35;8.60;;;4.05;;
13085;SDS011;6609;49.882;8.664;2023-04-06T00:32:05;9.38;;;4.38;;
13085;SDS011;6609;49.882;8.664;2023-04-06T00:34:32;10.73;;;4.00;;
13085;SDS011;6609;49.882;8.664;2023-04-06T00:36:59;14.80;;;5.40;;
13085;SDS011;6609;49.882;8.664;2023-04-06T00:39:26;16.42;;;4.88;;
13085;SDS011;6609;49.882;8.664;2023-04-06T00:41:53;10.10;;;4.07;;
13085;SDS011;6609;49.882;8.664;2023-04-06T00:44:21;14.25;;;4.40;;
13085;SDS011;6609;49.882;8.664;2023-04-06T00:46:48;12.50;;;4.50;;
13085;SDS011;6609;49.882;8.664;2023-04-06T00:49:16;9.80;;;4.22;;
13085;SDS011;6609;49.882;8.664;2023-04-06T00:51:43;18.40;;;5.03;;
13085;SDS011;6609;49.882;8.664;2023-04-06T00:54:10;13.68;;;4.70;;
13085;SDS011;6609;49.882;8.664;2023-04-06T00:56:37;11.77;;;3.97;;
13085;SDS011;6609;49.882;8.664;2023-04-06T00:59:04;12.90;;;4.20;;
13085;SDS011;6609;49.882;8.664;2023-04-06T01:01:31;12.18;;;4.53;;
13085;SDS011;6609;49.882;8.664;2023-04-06T01:03:59;10.85;;;4.82;;
13085;SDS011;6609;49.882;8.664;2023-04-06T01:06:29;11.52;;;4.32;;
13085;SDS011;6609;49.882;8.664;2023-04-06T01:08:56;9.23;;;4.05;;
13085;SDS011;6609;49.882;8.664;2023-04-06T01:11:23;15.68;;;4.55;;
13085;SDS011;6609;49.882;8.664;2023-04-06T01:13:51;11.90;;;4.25;;
13085;SDS011;6609;49.882;8.664;2023-04-06T01:16:18;8.68;;;3.50;;
13085;SDS011;6609;49.882;8.664;2023-04-06T01:18:45;12.68;;;4.43;;
13085;SDS011;6609;49.882;8.664;2023-04-06T01:21:12;16.50;;;4.57;;
13085;SDS011;6609;49.882;8.664;2023-04-06T01:23:43;12.63;;;4.68;;
13085;SDS011;6609;49.882;8.664;2023-04-06T01:26:11;14.38;;;4.75;;
13085;SDS011;6609;49.882;8.664;2023-04-06T01:28:38;9.32;;;3.88;;
13085;SDS011;6609;49.882;8.664;2023-04-06T01:31:06;15.05;;;4.60;;
13085;SDS011;6609;49.882;8.664;2023-04-06T01:33:33;11.15;;;3.80;;
13085;SDS011;6609;49.882;8.664;2023-04-06T01:36:00;11.27;;;3.83;;
13085;SDS011;6609;49.882;8.664;2023-04-06T01:38:27;10.05;;;4.22;;
13085;SDS011;6609;49.882;8.664;2023-04-06T01:40:56;11.90;;;4.50;;
13085;SDS011;6609;49.882;8.664;2023-04-06T01:43:22;12.68;;;4.07;;
13085;SDS011;6609;49.882;8.664;2023-04-06T01:45:49;12.18;;;4.65;;
13085;SDS011;6609;49.882;8.664;2023-04-06T01:48:16;19.23;;;4.97;;
13085;SDS011;6609;49.882;8.664;2023-04-06T01:50:43;13.13;;;4.15;;
13085;SDS011;6609;49.882;8.664;2023-04-06T01:53:10;16.13;;;4.63;;
13085;SDS011;6609;49.882;8.664;2023-04-06T01:55:37;15.45;;;5.00;;
13085;SDS011;6609;49.882;8.664;2023-04-06T01:58:05;11.30;;;3.70;;
13085;SDS011;6609;49.882;8.664;2023-04-06T02:00:32;12.85;;;4.45;;
13085;SDS011;6609;49.882;8.664;2023-04-06T02:02:59;15.70;;;4.65;;
13085;SDS011;6609;49.882;8.664;2023-04-06T02:05:26;13.65;;;4.72;;
13085;SDS011;6609;49.882;8.664;2023-04-06T02:07:53;13.65;;;4.65;;
13085;SDS011;6609;49.882;8.664;2023-04-06T02:10:20;14.23;;;4.93;;
13085;SDS011;6609;49.882;8.664;2023-04-06T02:12:47;13.27;;;4.43;;
13085;SDS011;6609;49.882;8.664;2023-04-06T02:15:16;12.68;;;4.45;;
13085;SDS011;6609;49.882;8.664;2023-04-06T02:17:43;14.95;;;4.97;;
13085;SDS011;6609;49.882;8.664;2023-04-06T02:20:09;12.95;;;4.45;;
13085;SDS011;6609;49.882;8.664;2023-04-06T02:22:37;15.65;;;4.95;;
13085;SDS011;6609;49.882;8.664;2023-04-06T02:25:04;14.85;;;4.88;;
13085;SDS011;6609;49.882;8.664;2023-04-06T02:27:31;17.58;;;4.90;;
13085;SDS011;6609;49.882;8.664;2023-04-06T02:29:58;13.52;;;4.28;;
13085;SDS011;6609;49.882;8.664;2023-04-06T02:32:26;14.23;;;4.88;;
13085;SDS011;6609;49.882;8.664;2023-04-06T02:34:53;15.93;;;4.88;;
13085;SDS011;6609;49.882;8.664;2023-04-06T02:37:20;13.52;;;4.38;;
13085;SDS011;6609;49.882;8.664;2023-04-06T02:39:49;17.02;;;4.85;;
13085;SDS011;6609;49.882;8.664;2023-04-06T02:42:16;16.58;;;5.55;;
13085;SDS011;6609;49.882;8.664;2023-04-06T02:44:43;19.52;;;5.68;;
13085;SDS011;6609;49.882;8.664;2023-04-06T02:47:10;15.88;;;5.00;;
13085;SDS011;6609;49.882;8.664;2023-04-06T02:49:38;14.93;;;5.10;;
13085;SDS011;6609;49.882;8.664;2023-04-06T02:52:05;20.58;;;6.75;;
13085;SDS011;6609;49.882;8.664;2023-04-06T02:54:32;12.40;;;4.57;;
13085;SDS011;6609;49.882;8.664;2023-04-06T02:56:59;14.70;;;4.28;;
13085;SDS011;6609;49.882;8.664;2023-04-06T02:59:26;9.73;;;4.05;;
13085;SDS011;6609;49.882;8.664;2023-04-06T03:01:53;14.20;;;5.25;;
13085;SDS011;6609;49.882;8.664;2023-04-06T03:04:20;13.90;;;4.47;;
13085;SDS011;6609;49.882;8.664;2023-04-06T03:06:51;11.60;;;4.40;;
13085;SDS011;6609;49.882;8.664;2023-04-06T03:09:18;10.15;;;4.30;;
13085;SDS011;6609;49.882;8.664;2023-04-06T03:11:45;12.00;;;4.45;;
13085;SDS011;6609;49.882;8.664;2023-04-06T03:14:12;10.35;;;4.07;;
13085;SDS011;6609;49.882;8.664;2023-04-06T03:16:39;14.43;;;4.70;;
13085;SDS011;6609;49.882;8.664;2023-04-06T03:19:06;17.20;;;5.15;;
13085;SDS011;6609;49.882;8.664;2023-04-06T03:21:33;13.23;;;4.68;;
13085;SDS011;6609;49.882;8.664;2023-04-06T03:24:02;12.18;;;4.35;;
13085;SDS011;6609;49.882;8.664;2023-04-06T03:26:29;13.18;;;4.30;;
13085;SDS011;6609;49.882;8.664;2023-04-06T03:28:56;8.35;;;3.50;;
13085;SDS011;6609;49.882;8.664;2023-04-06T03:31:23;13.07;;;4.32;;
13085;SDS011;6609;49.882;8.664;2023-04-06T03:33:50;11.68;;;3.83;;
13085;SDS011;6609;49.882;8.664;2023-04-06T03:36:17;16.60;;;5.00;;
13085;SDS011;6609;49.882;8.664;2023-04-06T03:38:44;16.45;;;5.30;;
13085;SDS011;6609;49.882;8.664;2023-04-06T03:41:12;11.80;;;4.57;;
13085;SDS011;6609;49.882;8.664;2023-04-06T03:43:39;11.40;;;4.00;;
13085;SDS011;6609;49.882;8.664;2023-04-06T03:46:06;9.73;;;4.32;;
13085;SDS011;6609;49.882;8.664;2023-04-06T03:48:33;12.15;;;4.65;;
13085;SDS011;6609;49.882;8.664;2023-04-06T03:51:01;11.18;;;4.30;;
13085;SDS011;6609;49.882;8.664;2023-04-06T03:53:28;16.90;;;4.82;;
13085;SDS011;6609;49.882;8.664;2023-04-06T03:55:55;13.02;;;5.18;;
13085;SDS011;6609;49.882;8.664;2023-04-06T03:58:23;16.52;;;5.07;;
13085;SDS011;6609;49.882;8.664;2023-04-06T04:00:50;15.43;;;5.28;;
13085;SDS011;6609;49.882;8.664;2023-04-06T04:03:17;13.52;;;4.47;;
13085;SDS011;6609;49.882;8.664;2023-04-06T04:05:44;20.58;;;5.93;;
13085;SDS011;6609;49.882;8.664;2023-04-06T04:08:11;10.52;;;4.22;;
13085;SDS011;6609;49.882;8.664;2023-04-06T04:10:38;17.75;;;5.25;;
13085;SDS011;6609;49.882;8.664;2023-04-06T04:13:05;14.40;;;4.45;;
13085;SDS011;6609;49.882;8.664;2023-04-06T04:15:33;14.07;;;4.82;;
13085;SDS011;6609;49.882;8.664;2023-04-06T04:18:00;12.02;;;4.72;;
13085;SDS011;6609;49.882;8.664;2023-04-06T04:20:27;14.50;;;4.45;;
13085;SDS011;6609;49.882;8.664;2023-04-06T04:22:54;13.73;;;4.53;;
13085;SDS011;6609;49.882;8.664;2023-04-06T04:25:22;15.05;;;5.05;;
13085;SDS011;6609;49.882;8.664;2023-04-06T04:27:49;16.77;;;5.07;;
13085;SDS011;6609;49.882;8.664;2023-04-06T04:30:16;12.80;;;4.78;;
13085;SDS011;6609;49.882;8.664;2023-04-06T04:32:45;11.27;;;4.18;;
13085;SDS011;6609;49.882;8.664;2023-04-06T04:35:11;23.20;;;7.45;;
13085;SDS011;6609;49.882;8.664;2023-04-06T04:37:40;8.57;;;3.65;;
13085;SDS011;6609;49.882;8.664;2023-04-06T04:40:07;15.32;;;4.70;;
13085;SDS011;6609;49.882;8.664;2023-04-06T04:42:34;14.02;;;4.40;;
13085;SDS011;6609;49.882;8.664;2023-04-06T04:45:01;19.70;;;5.80;;
13085;SDS011;6609;49.882;8.664;2023-04-06T04:47:28;14.25;;;4.50;;
13085;SDS011;6609;49.882;8.664;2023-04-06T04:49:56;18.33;;;5.40;;
13085;SDS011;6609;49.882;8.664;2023-04-06T04:52:23;12.98;;;4.65;;
13085;SDS011;6609;49.882;8.664;2023-04-06T04:54:50;14.40;;;4.53;;
13085;SDS011;6609;49.882;8.664;2023-04-06T04:57:17;16.65;;;5.05;;
13085;SDS011;6609;49.882;8.664;2023-04-06T04:59:44;16.20;;;4.68;;
13085;SDS011;6609;49.882;8.664;2023-04-06T05:02:12;18.75;;;5.82;;
13085;SDS011;6609;49.882;8.664;2023-04-06T05:04:39;14.40;;;4.53;;
13085;SDS011;6609;49.882;8.664;2023-04-06T05:07:08;12.65;;;4.55;;
13085;SDS011;6609;49.882;8.664;2023-04-06T05:09:35;16.80;;;4.45;;
13085;SDS011;6609;49.882;8.664;2023-04-06T05:12:02;16.15;;;5.30;;
13085;SDS011;6609;49.882;8.664;2023-04-06T05:14:29;12.40;;;4.18;;
13085;SDS011;6609;49.882;8.664;2023-04-06T05:16:57;18.27;;;5.13;;
13085;SDS011;6609;49.882;8.664;2023-04-06T05:19:24;15.77;;;5.00;;
13085;SDS011;6609;49.882;8.664;2023-04-06T05:21:51;12.95;;;4.80;;
13085;SDS011;6609;49.882;8.664;2023-04-06T05:24:19;16.95;;;5.15;;
13085;SDS011;6609;49.882;8.664;2023-04-06T05:26:46;15.25;;;5.28;;
13085;SDS011;6609;49.882;8.664;2023-04-06T05:29:14;13.70;;;4.65;;
13085;SDS011;6609;49.882;8.664;2023-04-06T05:31:41;18.80;;;5.55;;
13085;SDS011;6609;49.882;8.664;2023-04-06T05:34:08;12.85;;;4.53;;
13085;SDS011;6609;49.882;8.664;2023-04-06T05:36:35;12.05;;;4.47;;
13085;SDS011;6609;49.882;8.664;2023-04-06T05:39:02;16.23;;;4.97;;
13085;SDS011;6609;49.882;8.664;2023-04-06T05:41:31;23.55;;;6.13;;
13085;SDS011;6609;49.882;8.664;2023-04-06T05:43:57;15.13;;;4.97;;
13085;SDS011;6609;49.882;8.664;2023-04-06T05:46:24;14.35;;;5.28;;
13085;SDS011;6609;49.882;8.664;2023-04-06T05:48:51;16.80;;;4.80;;
13085;SDS011;6609;49.882;8.664;2023-04-06T05:51:18;18.08;;;5.90;;
13085;SDS011;6609;49.882;8.664;2023-04-06T05:53:45;15.88;;;4.90;;
13085;SDS011;6609;49.882;8.664;2023-04-06T05:56:13;18.92;;;5.65;;
13085;SDS011;6609;49.882;8.664;2023-04-06T05:58:41;13.65;;;4.70;;
13085;SDS011;6609;49.882;8.664;2023-04-06T06:01:08;15.20;;;4.68;;
13085;SDS011;6609;49.882;8.664;2023-04-06T06:03:35;14.77;;;4.47;;
13085;SDS011;6609;49.882;8.664;2023-04-06T06:06:02;14.60;;;4.68;;
13085;SDS011;6609;49.882;8.664;2023-04-06T06:08:31;15.45;;;4.72;;
13085;SDS011;6609;49.882;8.664;2023-04-06T06:10:58;15.13;;;4.53;;
13085;SDS011;6609;49.882;8.664;2023-04-06T06:13:25;13.18;;;4.97;;
13085;SDS011;6609;49.882;8.664;2023-04-06T06:15:53;16.40;;;4.65;;
13085;SDS011;6609;49.882;8.664;2023-04-06T06:18:20;16.55;;;5.45;;
13085;SDS011;6609;49.882;8.664;2023-04-06T06:20:47;15.63;;;5.18;;
13085;SDS011;6609;49.882;8.664;2023-04-06T06:23:14;11.90;;;5.10;;
13085;SDS011;6609;49.882;8.664;2023-04-06T06:25:41;11.38;;;4.63;;
13085;SDS011;6609;49.882;8.664;2023-04-06T06:28:08;12.38;;;4.60;;
13085;SDS011;6609;49.882;8.664;2023-04-06T06:30:35;22.65;;;5.22;;
13085;SDS011;6609;49.882;8.664;2023-04-06T06:33:03;17.67;;;5.78;;
13085;SDS011;6609;49.882;8.664;2023-04-06T06:35:30;19.17;;;6.80;;
13085;SDS011;6609;49.882;8.664;2023-04-06T06:37:57;16.23;;;5.57;;
13085;SDS011;6609;49.882;8.664;2023-04-06T06:40:25;16.92;;;4.65;;
13085;SDS011;6609;49.882;8.664;2023-04-06T06:42:52;16.50;;;5.50;;
13085;SDS011;6609;49.882;8.664;2023-04-06T06:45:19;12.98;;;5.32;;
13085;SDS011;6609;49.882;8.664;2023-04-06T06:47:46;16.40;;;5.25;;
13085;SDS011;6609;49.882;8.664;2023-04-06T06:50:14;13.60;;;4.53;;
13085;SDS011;6609;49.882;8.664;2023-04-06T06:52:42;13.73;;;5.82;;
13085;SDS011;6609;49.882;8.664;2023-04-06T06:55:10;11.87;;;4.93;;
13085;SDS011;6609;49.882;8.664;2023-04-06T06:57:37;13.47;;;5.80;;
13085;SDS011;6609;49.882;8.664;2023-04-06T07:00:04;17.93;;;6.30;;
13085;SDS011;6609;49.882;8.664;2023-04-06T07:02:33;16.17;;;6.93;;
13085;SDS011;6609;49.882;8.664;2023-04-06T07:05:01;19.63;;;6.67;;
13085;SDS011;6609;49.882;8.664;2023-04-06T07:07:31;19.87;;;7.97;;
13085;SDS011;6609;49.882;8.664;2023-04-06T07:09:58;19.63;;;8.23;;
13085;SDS011;6609;49.882;8.664;2023-04-06T07:12:25;15.30;;;7.70;;
13085;SDS011;6609;49.882;8.664;2023-04-06T07:14:52;22.17;;;9.03;;
13085;SDS011;6609;49.882;8.664;2023-04-06T07:17:19;16.67;;;8.13;;
13085;SDS011;6609;49.882;8.664;2023-04-06T07:19:46;17.30;;;7.77;;
13085;SDS011;6609;49.882;8.664;2023-04-06T07:22:13;17.63;;;8.17;;
13085;SDS011;6609;49.882;8.664;2023-04-06T07:24:42;21.30;;;8.87;;
13085;SDS011;6609;49.882;8.664;2023-04-06T07:27:09;16.13;;;7.90;;
13085;SDS011;6609;49.882;8.664;2023-04-06T07:29:36;19.03;;;7.53;;
13085;SDS011;6609;49.882;8.664;2023-04-06T07:32:03;17.53;;;9.20;;
13085;SDS011;6609;49.882;8.664;2023-04-06T07:34:30;13.70;;;7.30;;
13085;SDS011;6609;49.882;8.664;2023-04-06T07:36:57;17.47;;;7.77;;
13085;SDS011;6609;49.882;8.664;2023-04-06T07:39:25;18.10;;;7.93;;
13085;SDS011;6609;49.882;8.664;2023-04-06T07:41:54;19.00;;;8.67;;
13085;SDS011;6609;49.882;8.664;2023-04-06T07:44:20;16.70;;;8.73;;
13085;SDS011;6609;49.882;8.664;2023-04-06T07:46:48;22.63;;;9.10;;
13085;SDS011;6609;49.882;8.664;2023-04-06T07:49:15;14.77;;;8.57;;
13085;SDS011;6609;49.882;8.664;2023-04-06T07:51:42;20.37;;;8.47;;
13085;SDS011;6609;49.882;8.664;2023-04-06T07:54:09;15.40;;;8.03;;
13085;SDS011;6609;49.882;8.664;2023-04-06T07:56:36;22.90;;;9.40;;
13085;SDS011;6609;49.882;8.664;2023-04-06T07:59:04;19.43;;;8.43;;
13085;SDS011;6609;49.882;8.664;2023-04-06T08:01:31;18.20;;;8.67;;
13085;SDS011;6609;49.882;8.664;2023-04-06T08:03:58;19.03;;;8.63;;
13085;SDS011;6609;49.882;8.664;2023-04-06T08:06:27;17.57;;;8.27;;
13085;SDS011;6609;49.882;8.664;2023-04-06T08:08:54;12.33;;;7.30;;
13085;SDS011;6609;49.882;8.664;2023-04-06T08:11:21;15.87;;;8.23;;
13085;SDS011;6609;49.882;8.664;2023-04-06T08:13:48;19.53;;;7.50;;
13085;SDS011;6609;49.882;8.664;2023-04-06T08:16:17;13.97;;;7.90;;
13085;SDS011;6609;49.882;8.664;2023-04-06T08:18:44;15.17;;;8.60;;
13085;SDS011;6609;49.882;8.664;2023-04-06T08:21:11;18.97;;;8.50;;
13085;SDS011;6609;49.882;8.664;2023-04-06T08:23:38;12.80;;;7.97;;
13085;SDS011;6609;49.882;8.664;2023-04-06T08:26:05;11.73;;;7.57;;
13085;SDS011;6609;49.882;8.664;2023-04-06T08:28:32;15.13;;;8.17;;
13085;SDS011;6609;49.882;8.664;2023-04-06T08:31:02;13.20;;;8.27;;
13085;SDS011;6609;49.882;8.664;2023-04-06T08:33:31;11.90;;;8.13;;
13085;SDS011;6609;49.882;8.664;2023-04-06T08:36:06;12.30;;;8.77;;
13085;SDS011;6609;49.882;8.664;2023-04-06T08:38:33;13.13;;;8.83;;
13085;SDS011;6609;49.882;8.664;2023-04-06T08:41:05;12.70;;;8.73;;
13085;SDS011;6609;49.882;8.664;2023-04-06T08:43:33;14.47;;;8.13;;
13085;SDS011;6609;49.882;8.664;2023-04-06T08:46:01;11.53;;;7.30;;
13085;SDS011;6609;49.882;8.664;2023-04-06T08:48:29;13.53;;;8.03;;
13085;SDS011;6609;49.882;8.664;2023-04-06T08:50:59;12.53;;;7.60;;
13085;SDS011;6609;49.882;8.664;2023-04-06T08:53:26;10.53;;;7.13;;
13085;SDS011;6609;49.882;8.664;2023-04-06T08:55:54;10.60;;;7.43;;
13085;SDS011;6609;49.882;8.664;2023-04-06T08:58:23;13.53;;;7.30;;
13085;SDS011;6609;49.882;8.664;2023-04-06T09:00:51;11.50;;;7.10;;
13085;SDS011;6609;49.882;8.664;2023-04-06T09:03:19;11.93;;;6.93;;
13085;SDS011;6609;49.882;8.664;2023-04-06T09:05:47;20.77;;;7.90;;
13085;SDS011;6609;49.882;8.664;2023-04-06T09:08:16;11.33;;;6.87;;
13085;SDS011;6609;49.882;8.664;2023-04-06T09:10:42;12.27;;;6.97;;
13085;SDS011;6609;49.882;8.664;2023-04-06T09:13:10;11.03;;;6.43;;
13085;SDS011;6609;49.882;8.664;2023-04-06T09:15:37;13.27;;;7.97;;
13085;SDS011;6609;49.882;8.664;2023-04-06T09:18:04;14.20;;;7.63;;
13085;SDS011;6609;49.882;8.664;2023-04-06T09:20:32;17.87;;;6.60;;
13085;SDS011;6609;49.882;8.664;2023-04-06T09:23:00;9.67;;;6.53;;
13085;SDS011;6609;49.882;8.664;2023-04-06T09:25:28;12.60;;;7.50;;
13085;SDS011;6609;49.882;8.664;2023-04-06T09:28:00;12.57;;;6.97;;
13085;SDS011;6609;49.882;8.664;2023-04-06T09:30:28;12.70;;;6.67;;
13085;SDS011;6609;49.882;8.664;2023-04-06T09:32:56;13.17;;;8.00;;
13085;SDS011;6609;49.882;8.664;2023-04-06T09:35:25;10.43;;;7.03;;
13085;SDS011;6609;49.882;8.664;2023-04-06T09:37:52;11.97;;;6.50;;
13085;SDS011;6609;49.882;8.664;2023-04-06T09:40:20;16.27;;;8.17;;
13085;SDS011;6609;49.882;8.664;2023-04-06T09:42:49;15.13;;;8.03;;
13085;SDS011;6609;49.882;8.664;2023-04-06T09:45:19;14.03;;;8.03;;
13085;SDS011;6609;49.882;8.664;2023-04-06T09:47:46;14.97;;;7.63;;
13085;SDS011;6609;49.882;8.664;2023-04-06T09:50:15;13.93;;;6.40;;
13085;SDS011;6609;49.882;8.664;2023-04-06T09:52:42;17.20;;;7.80;;
13085;SDS011;6609;49.882;8.664;2023-04-06T09:55:16;15.43;;;6.80;;
13085;SDS011;6609;49.882;8.664;2023-04-06T09:57:45;17.03;;;8.03;;
13085;SDS011;6609;49.882;8.664;2023-04-06T10:00:17;17.07;;;7.67;;
13085;SDS011;6609;49.882;8.664;2023-04-06T10:02:48;19.20;;;8.80;;
13085;SDS011;6609;49.882;8.664;2023-04-06T10:05:19;15.53;;;7.57;;
13085;SDS011;6609;49.882;8.664;2023-04-06T10:07:55;13.37;;;8.13;;
13085;SDS011;6609;49.882;8.664;2023-04-06T10:10:23;15.63;;;7.87;;
13085;SDS011;6609;49.882;8.664;2023-04-06T10:12:50;13.50;;;7.97;;
13085;SDS011;6609;49.882;8.664;2023-04-06T10:15:19;11.03;;;7.40;;
13085;SDS011;6609;49.882;8.664;2023-04-06T10:17:46;11.97;;;7.33;;
13085;SDS011;6609;49.882;8.664;2023-04-06T10:20:16;15.57;;;8.43;;
13085;SDS011;6609;49.882;8.664;2023-04-06T10:22:49;12.70;;;7.37;;
13085;SDS011;6609;49.882;8.664;2023-04-06T10:25:26;17.10;;;8.63;;
13085;SDS011;6609;49.882;8.664;2023-04-06T10:27:58;12.93;;;7.57;;
13085;SDS011;6609;49.882;8.664;2023-04-06T10:30:27;12.30;;;7.13;;
13085;SDS011;6609;49.882;8.664;2023-04-06T10:32:54;14.60;;;7.70;;
13085;SDS011;6609;49.882;8.664;2023-04-06T10:35:22;14.47;;;8.10;;
13085;SDS011;6609;49.882;8.664;2023-04-06T10:37:49;16.33;;;7.97;;
13085;SDS011;6609;49.882;8.664;2023-04-06T10:40:17;12.87;;;7.80;;
13085;SDS011;6609;49.882;8.664;2023-04-06T10:42:45;14.57;;;8.70;;
13085;SDS011;6609;49.882;8.664;2023-04-06T10:45:18;16.60;;;8.00;;
13085;SDS011;6609;49.882;8.664;2023-04-06T10:47:47;11.43;;;7.63;;
13085;SDS011;6609;49.882;8.664;2023-04-06T10:50:14;12.93;;;7.80;;
13085;SDS011;6609;49.882;8.664;2023-04-06T10:52:43;15.20;;;7.90;;
13085;SDS011;6609;49.882;8.664;2023-04-06T10:58:29;17.27;;;8.53;;
13085;SDS011;6609;49.882;8.664;2023-04-06T11:00:56;13.70;;;8.40;;
13085;SDS011;6609;49.882;8.664;2023-04-06T11:03:26;19.00;;;8.40;;
13085;SDS011;6609;49.882;8.664;2023-04-06T11:05:52;13.87;;;8.20;;
13085;SDS011;6609;49.882;8.664;2023-04-06T11:08:24;14.70;;;9.47;;
13085;SDS011;6609;49.882;8.664;2023-04-06T11:10:51;14.97;;;8.50;;
13085;SDS011;6609;49.882;8.664;2023-04-06T11:13:18;16.13;;;9.17;;
13085;SDS011;6609;49.882;8.664;2023-04-06T11:15:45;15.50;;;8.60;;
13085;SDS011;6609;49.882;8.664;2023-04-06T11:18:16;12.23;;;8.10;;
13085;SDS011;6609;49.882;8.664;2023-04-06T11:20:48;16.30;;;8.87;;
13085;SDS011;6609;49.882;8.664;2023-04-06T11:23:21;13.80;;;8.07;;
13085;SDS011;6609;49.882;8.664;2023-04-06T11:25:50;14.97;;;8.97;;
13085;SDS011;6609;49.882;8.664;2023-04-06T11:28:17;18.77;;;8.53;;
13085;SDS011;6609;49.882;8.664;2023-04-06T11:30:44;13.87;;;8.50;;
13085;SDS011;6609;49.882;8.664;2023-04-06T11:33:19;15.90;;;8.60;;
13085;SDS011;6609;49.882;8.664;2023-04-06T11:35:47;14.90;;;7.87;;
13085;SDS011;6609;49.882;8.664;2023-04-06T11:38:14;15.90;;;8.63;;
13085;SDS011;6609;49.882;8.664;2023-04-06T11:40:41;16.93;;;8.57;;
13085;SDS011;6609;49.882;8.664;2023-04-06T11:43:10;17.83;;;8.67;;
13085;SDS011;6609;49.882;8.664;2023-04-06T11:45:41;14.50;;;7.87;;
13085;SDS011;6609;49.882;8.664;2023-04-06T11:48:17;15.10;;;8.37;;
13085;SDS011;6609;49.882;8.664;2023-04-06T11:50:46;15.47;;;8.33;;
13085;SDS011;6609;49.882;8.664;2023-04-06T11:53:14;16.07;;;7.83;;
13085;SDS011;6609;49.882;8.664;2023-04-06T11:55:41;14.63;;;8.80;;
13085;SDS011;6609;49.882;8.664;2023-04-06T11:58:11;15.90;;;8.70;;
13085;SDS011;6609;49.882;8.664;2023-04-06T12:00:38;16.40;;;9.17;;
13085;SDS011;6609;49.882;8.664;2023-04-06T12:03:10;15.60;;;7.80;;
13085;SDS011;6609;49.882;8.664;2023-04-06T12:05:37;14.63;;;8.03;;
13085;SDS011;6609;49.882;8.664;2023-04-06T12:08:05;15.47;;;8.00;;
13085;SDS011;6609;49.882;8.664;2023-04-06T12:10:32;13.23;;;7.23;;
13085;SDS011;6609;49.882;8.664;2023-04-06T12:12:59;16.20;;;8.07;;
13085;SDS011;6609;49.882;8.664;2023-04-06T12:15:26;21.00;;;8.13;;
13085;SDS011;6609;49.882;8.664;2023-04-06T12:17:53;16.30;;;7.67;;
13085;SDS011;6609;49.882;8.664;2023-04-06T12:20:20;16.93;;;7.83;;
13085;SDS011;6609;49.882;8.664;2023-04-06T12:22:47;18.47;;;8.00;;
13085;SDS011;6609;49.882;8.664;2023-04-06T12:25:16;17.90;;;8.03;;
13085;SDS011;6609;49.882;8.664;2023-04-06T12:27:43;18.50;;;8.27;;
13085;SDS011;6609;49.882;8.664;2023-04-06T12:30:11;16.53;;;7.70;;
13085;SDS011;6609;49.882;8.664;2023-04-06T12:32:38;15.27;;;7.43;;
13085;SDS011;6609;49.882;8.664;2023-04-06T12:35:05;16.70;;;7.57;;
13085;SDS011;6609;49.882;8.664;2023-04-06T12:37:33;16.23;;;7.50;;
13085;SDS011;6609;49.882;8.664;2023-04-06T12:40:01;16.40;;;7.33;;
13085;SDS011;6609;49.882;8.664;2023-04-06T12:42:30;16.23;;;7.83;;
13085;SDS011;6609;49.882;8.664;2023-04-06T12:44:57;15.93;;;7.30;;
13085;SDS011;6609;49.882;8.664;2023-04-06T12:47:25;16.80;;;8.17;;
13085;SDS011;6609;49.882;8.664;2023-04-06T12:49:52;19.50;;;8.07;;
13085;SDS011;6609;49.882;8.664;2023-04-06T12:52:20;13.67;;;6.97;;
13085;SDS011;6609;49.882;8.664;2023-04-06T12:54:47;13.63;;;6.67;;
13085;SDS011;6609;49.882;8.664;2023-04-06T12:57:14;14.37;;;6.60;;
13085;SDS011;6609;49.882;8.664;2023-04-06T12:59:43;14.77;;;7.03;;
13085;SDS011;6609;49.882;8.664;2023-04-06T13:02:11;12.30;;;6.53;;
13085;SDS011;6609;49.882;8.664;2023-04-06T13:04:38;14.90;;;7.10;;
13085;SDS011;6609;49.882;8.664;2023-04-06T13:07:05;14.13;;;6.20;;
13085;SDS011;6609;49.882;8.664;2023-04-06T13:09:32;9.37;;;5.90;;
13085;SDS011;6609;49.882;8.664;2023-04-06T13:11:59;13.33;;;6.70;;
13085;SDS011;6609;49.882;8.664;2023-04-06T13:14:26;12.03;;;6.47;;
13085;SDS011;6609;49.882;8.664;2023-04-06T13:16:54;12.47;;;6.17;;
13085;SDS011;6609;49.882;8.664;2023-04-06T13:19:21;9.97;;;5.63;;
13085;SDS011;6609;49.882;8.664;2023-04-06T13:21:48;13.87;;;5.73;;
13085;SDS011;6609;49.882;8.664;2023-04-06T13:24:14;10.93;;;6.10;;
13085;SDS011;6609;49.882;8.664;2023-04-06T13:26:41;18.80;;;7.37;;
13085;SDS011;6609;49.882;8.664;2023-04-06T13:29:08;12.47;;;6.17;;
13085;SDS011;6609;49.882;8.664;2023-04-06T13:31:35;18.37;;;7.13;;
13085;SDS011;6609;49.882;8.664;2023-04-06T13:34:04;17.97;;;7.00;;
13085;SDS011;6609;49.882;8.664;2023-04-06T13:36:31;14.30;;;5.97;;
13085;SDS011;6609;49.882;8.664;2023-04-06T13:38:58;14.63;;;6.43;;
13085;SDS011;6609;49.882;8.664;2023-04-06T13:41:25;11.60;;;6.63;;
13085;SDS011;6609;49.882;8.664;2023-04-06T13:43:52;12.77;;;6.43;;
13085;SDS011;6609;49.882;8.664;2023-04-06T13:46:19;10.43;;;5.83;;
13085;SDS011;6609;49.882;8.664;2023-04-06T13:48:48;14.80;;;6.60;;
13085;SDS011;6609;49.882;8.664;2023-04-06T13:51:17;13.23;;;7.07;;
13085;SDS011;6609;49.882;8.664;2023-04-06T13:53:44;17.83;;;7.93;;
13085;SDS011;6609;49.882;8.664;2023-04-06T13:56:11;16.77;;;6.87;;
13085;SDS011;6609;49.882;8.664;2023-04-06T13:58:38;16.40;;;6.47;;
13085;SDS011;6609;49.882;8.664;2023-04-06T14:01:07;13.90;;;6.27;;
13085;SDS011;6609;49.882;8.664;2023-04-06T14:03:34;16.87;;;7.27;;
13085;SDS011;6609;49.882;8.664;2023-04-06T14:06:08;16.10;;;6.40;;
13085;SDS011;6609;49.882;8.664;2023-04-06T14:08:37;16.30;;;7.43;;
13085;SDS011;6609;49.882;8.664;2023-04-06T14:11:04;12.10;;;6.90;;
13085;SDS011;6609;49.882;8.664;2023-04-06T14:13:33;15.60;;;7.43;;
13085;SDS011;6609;49.882;8.664;2023-04-06T14:16:00;14.63;;;6.40;;
13085;SDS011;6609;49.882;8.664;2023-04-06T14:18:27;14.07;;;7.43;;
13085;SDS011;6609;49.882;8.664;2023-04-06T14:20:56;16.93;;;7.40;;
13085;SDS011;6609;49.882;8.664;2023-04-06T14:23:23;19.17;;;6.93;;
13085;SDS011;6609;49.882;8.664;2023-04-06T14:25:55;13.63;;;6.63;;
13085;SDS011;6609;49.882;8.664;2023-04-06T14:28:28;17.20;;;7.03;;
13085;SDS011;6609;49.882;8.664;2023-04-06T14:30:55;17.10;;;7.20;;
13085;SDS011;6609;49.882;8.664;2023-04-06T14:33:23;15.27;;;7.40;;
13085;SDS011;6609;49.882;8.664;2023-04-06T14:35:50;14.57;;;7.40;;
13085;SDS011;6609;49.882;8.664;2023-04-06T14:38:17;14.30;;;6.87;;
13085;SDS011;6609;49.882;8.664;2023-04-06T14:40:44;20.67;;;7.77;;
13085;SDS011;6609;49.882;8.664;2023-04-06T14:43:12;15.50;;;7.17;;
13085;SDS011;6609;49.882;8.664;2023-04-06T14:45:40;15.17;;;7.40;;
13085;SDS011;6609;49.882;8.664;2023-04-06T14:48:07;18.13;;;7.17;;
13085;SDS011;6609;49.882;8.664;2023-04-06T14:50:37;19.30;;;7.83;;
13085;SDS011;6609;49.882;8.664;2023-04-06T14:53:04;16.10;;;7.27;;